Time;durP1;ratioP1;P1;durP2;ratioP2;P2;SDS_P1;SDS_P2;PMS_P1;PMS_P2;Temp;Humidity;BMP_temperature;BMP_pressure;BME280_temperature;BME280_humidity;BME280_pressure;Samples;Min_cycle;Max_cycle;Signal;HPM_P1;HPM_P2
2021/03/21 00:02:16;;;;;;;16.57;13.60;;;7.40;93.80;;;;;;5085514;28;20155;-82
2021/03/21 00:04:42;;;;;;;17.77;13.00;;;7.50;93.50;;;;;;5074561;28;20210;-79
2021/03/21 00:07:07;;;;;;;20.60;14.73;;;7.30;93.20;;;;;;5073801;28;20692;-80
2021/03/21 00:09:33;;;;;;;17.77;12.70;;;7.30;94.30;;;;;;5073943;28;20210;-79
2021/03/21 00:11:59;;;;;;;17.33;13.67;;;7.10;95.50;;;;;;5074043;28;20237;-84
2021/03/21 00:14:24;;;;;;;16.40;13.40;;;7.20;96.40;;;;;;5074957;28;20670;-79
2021/03/21 00:16:50;;;;;;;18.83;13.47;;;7.20;96.20;;;;;;5057289;28;20272;-83
2021/03/21 00:19:16;;;;;;;17.33;13.37;;;7.30;96.10;;;;;;5075444;28;20168;-81
2021/03/21 00:21:41;;;;;;;17.53;12.40;;;7.30;95.50;;;;;;5075088;28;20620;-82
2021/03/21 00:24:08;;;;;;;18.03;13.00;;;7.40;94.40;;;;;;5074791;28;20200;-80
2021/03/21 00:26:35;;;;;;;15.13;12.30;;;7.30;95.00;;;;;;5056806;28;20303;-81
2021/03/21 00:29:00;;;;;;;15.60;12.40;;;7.20;95.20;;;;;;5067513;28;20182;-78
2021/03/21 00:31:26;;;;;;;15.40;12.83;;;7.20;95.30;;;;;;5075428;28;20188;-83
2021/03/21 00:33:52;;;;;;;16.37;12.87;;;7.10;95.80;;;;;;5074987;28;20168;-84
2021/03/21 00:36:17;;;;;;;15.57;12.63;;;7.10;96.20;;;;;;5074959;28;20172;-79
2021/03/21 00:38:47;;;;;;;16.10;13.27;;;7.10;96.60;;;;;;5075012;28;20215;-78
2021/03/21 00:41:15;;;;;;;16.90;13.80;;;7.20;95.60;;;;;;5075064;28;20169;-79
2021/03/21 00:43:40;;;;;;;18.30;14.20;;;7.30;94.90;;;;;;5075079;28;20176;-79
2021/03/21 00:46:07;;;;;;;15.93;12.73;;;7.30;94.30;;;;;;5074885;28;20216;-79
2021/03/21 00:48:37;;;;;;;17.80;13.90;;;7.20;95.10;;;;;;5075057;28;20184;-83
2021/03/21 00:51:03;;;;;;;17.73;13.93;;;7.20;95.60;;;;;;5074870;28;20544;-80
2021/03/21 00:53:28;;;;;;;18.23;14.20;;;7.30;95.50;;;;;;5056932;28;20650;-84
2021/03/21 00:55:54;;;;;;;17.70;14.10;;;7.40;95.00;;;;;;5056790;28;20208;-84
2021/03/21 00:58:20;;;;;;;16.83;13.50;;;7.30;95.20;;;;;;5074512;28;20156;-82
2021/03/21 01:00:50;;;;;;;18.37;14.57;;;7.30;95.00;;;;;;5074478;28;20230;-83
2021/03/21 01:03:17;;;;;;;19.43;14.83;;;7.40;94.70;;;;;;5074111;28;20160;-80
2021/03/21 01:05:46;;;;;;;18.10;14.07;;;7.40;94.50;;;;;;5056145;28;20235;-82
2021/03/21 01:08:17;;;;;;;19.20;13.67;;;7.30;95.30;;;;;;5056111;28;20176;-80
2021/03/21 01:10:43;;;;;;;18.87;14.37;;;7.30;95.60;;;;;;5074561;28;20251;-83
2021/03/21 01:13:09;;;;;;;18.03;14.03;;;7.00;97.00;;;;;;5074057;28;20281;-79
2021/03/21 01:15:35;;;;;;;21.20;15.60;;;7.10;97.40;;;;;;5074319;28;20192;-85
2021/03/21 01:18:01;;;;;;;19.77;15.80;;;7.10;97.30;;;;;;5074109;28;20179;-79
2021/03/21 01:20:29;;;;;;;18.20;15.03;;;7.20;97.60;;;;;;5056075;28;20164;-79
2021/03/21 01:22:55;;;;;;;19.23;15.77;;;7.10;97.60;;;;;;5073853;28;20168;-83
2021/03/21 01:25:28;;;;;;;18.60;15.20;;;7.20;97.60;;;;;;5073973;28;20216;-78
2021/03/21 01:27:58;;;;;;;19.37;15.37;;;7.10;97.50;;;;;;5073801;28;20176;-78
2021/03/21 01:30:25;;;;;;;20.83;15.47;;;7.20;97.90;;;;;;5073385;28;20165;-81
2021/03/21 01:32:52;;;;;;;18.83;15.93;;;7.20;97.60;;;;;;5056087;28;20534;-80
2021/03/21 01:35:18;;;;;;;19.40;15.40;;;7.20;97.80;;;;;;5073845;28;20628;-79
2021/03/21 01:37:44;;;;;;;19.47;15.37;;;7.20;98.10;;;;;;5056280;28;20234;-78
2021/03/21 01:40:13;;;;;;;21.30;16.97;;;7.40;98.00;;;;;;5075021;28;20531;-85
2021/03/21 01:42:45;;;;;;;20.17;15.87;;;7.50;97.30;;;;;;5056365;28;20258;-82
2021/03/21 01:45:33;;;;;;;20.77;15.37;;;7.50;96.40;;;;;;5073717;28;20208;-80
2021/03/21 01:48:03;;;;;;;20.30;15.43;;;7.40;96.80;;;;;;5073359;28;20605;-82
2021/03/21 01:51:00;;;;;;;20.17;15.93;;;7.50;96.80;;;;;;5055498;28;20195;-79
2021/03/21 01:53:29;;;;;;;21.83;17.10;;;7.60;96.50;;;;;;5071684;28;20223;-79
2021/03/21 01:55:56;;;;;;;21.73;16.97;;;7.60;96.40;;;;;;5073107;28;20643;-81
2021/03/21 01:58:24;;;;;;;20.73;16.90;;;7.60;96.60;;;;;;5073030;28;20632;-85
2021/03/21 02:00:53;;;;;;;21.17;16.40;;;7.60;96.80;;;;;;5073497;28;20179;-79
2021/03/21 02:03:19;;;;;;;20.03;15.73;;;7.50;96.80;;;;;;5073331;28;20160;-77
2021/03/21 02:05:44;;;;;;;20.47;16.47;;;7.50;97.40;;;;;;5055786;28;20668;-78
2021/03/21 02:08:49;;;;;;;20.77;16.07;;;7.60;97.60;;;;;;5072765;28;20682;-79
2021/03/21 02:11:32;;;;;;;22.27;15.80;;;7.50;97.30;;;;;;4972171;28;20175;-76
2021/03/21 02:14:02;;;;;;;20.60;15.97;;;7.60;97.70;;;;;;4972433;28;20255;-78
2021/03/21 02:16:41;;;;;;;21.43;16.90;;;7.50;97.60;;;;;;5034572;28;20321;-78
2021/03/21 02:19:33;;;;;;;23.77;17.33;;;7.30;98.50;;;;;;5055128;28;20175;-79
2021/03/21 02:22:04;;;;;;;23.03;17.27;;;7.30;99.70;;;;;;5055401;28;20215;-79
2021/03/21 02:24:50;;;;;;;23.03;18.00;;;7.30;99.90;;;;;;5073128;28;20192;-78
2021/03/21 02:27:34;;;;;;;23.53;18.17;;;7.40;99.30;;;;;;5055068;28;20196;-85
2021/03/21 02:30:14;;;;;;;23.60;17.87;;;7.50;99.00;;;;;;5056129;28;20172;-84
2021/03/21 02:32:56;;;;;;;23.47;17.90;;;7.40;99.20;;;;;;5073130;28;20226;-80
2021/03/21 02:35:43;;;;;;;25.53;18.20;;;7.10;99.90;;;;;;5054712;28;20179;-84
2021/03/21 02:38:45;;;;;;;25.13;19.43;;;7.30;99.90;;;;;;5072688;28;20207;-80
2021/03/21 02:41:20;;;;;;;26.93;19.73;;;7.50;99.90;;;;;;5072767;28;20207;-78
2021/03/21 02:43:52;;;;;;;25.77;19.20;;;7.60;99.60;;;;;;5072711;28;20182;-83
2021/03/21 02:46:26;;;;;;;25.87;19.23;;;7.40;99.60;;;;;;5054744;28;20215;-79
2021/03/21 02:48:58;;;;;;;27.93;20.20;;;7.40;99.90;;;;;;5072931;28;20203;-78
2021/03/21 02:51:29;;;;;;;28.37;20.63;;;7.40;99.90;;;;;;5072689;28;20196;-79
2021/03/21 02:54:04;;;;;;;26.40;20.77;;;7.40;99.90;;;;;;5072231;28;20208;-78
2021/03/21 02:56:31;;;;;;;30.60;19.53;;;7.40;99.90;;;;;;5072675;28;20206;-78
2021/03/21 02:59:13;;;;;;;29.30;20.93;;;7.40;99.90;;;;;;5054898;28;20177;-78
2021/03/21 03:02:00;;;;;;;26.87;20.00;;;7.40;99.90;;;;;;5073019;28;20171;-79
2021/03/21 03:04:33;;;;;;;27.17;20.73;;;7.40;99.90;;;;;;5054659;28;20600;-77
2021/03/21 03:07:16;;;;;;;29.63;20.50;;;7.40;99.90;;;;;;5072804;28;20243;-78
2021/03/21 03:09:48;;;;;;;26.73;19.80;;;7.50;99.90;;;;;;5072503;28;20195;-84
2021/03/21 03:12:32;;;;;;;26.43;20.03;;;7.50;99.90;;;;;;5072724;28;20653;-77
2021/03/21 03:14:58;;;;;;;25.30;20.20;;;7.50;99.90;;;;;;5054722;28;20177;-80
2021/03/21 03:17:29;;;;;;;28.03;21.57;;;7.50;99.90;;;;;;5071574;28;20169;-83
2021/03/21 03:19:58;;;;;;;27.37;20.87;;;7.50;99.90;;;;;;5054445;28;20195;-79
2021/03/21 03:22:30;;;;;;;25.90;20.77;;;7.40;99.90;;;;;;5072539;28;20605;-79
2021/03/21 03:24:56;;;;;;;26.03;20.13;;;7.40;99.90;;;;;;5072516;28;20212;-79
2021/03/21 03:27:36;;;;;;;25.67;19.70;;;7.40;99.90;;;;;;5072417;28;20172;-84
2021/03/21 03:30:10;;;;;;;26.80;20.10;;;7.60;99.90;;;;;;5071970;28;20168;-82
2021/03/21 03:32:36;;;;;;;27.07;20.60;;;7.70;99.90;;;;;;5072664;28;20195;-85
2021/03/21 03:35:04;;;;;;;28.37;20.83;;;7.70;99.90;;;;;;5072653;28;20586;-83
2021/03/21 03:37:29;;;;;;;27.40;20.03;;;7.70;99.90;;;;;;5072290;28;20186;-82
2021/03/21 03:39:55;;;;;;;26.97;20.50;;;7.70;99.90;;;;;;5072394;28;20168;-78
2021/03/21 03:43:02;;;;;;;24.70;20.13;;;7.60;99.90;;;;;;5072445;28;20251;-77
2021/03/21 03:45:48;;;;;;;26.33;19.33;;;7.50;99.90;;;;;;5074857;28;20289;-83
2021/03/21 03:48:42;;;;;;;28.33;20.73;;;7.50;99.90;;;;;;5058096;28;20629;-82
2021/03/21 03:51:41;;;;;;;31.00;20.80;;;7.60;99.90;;;;;;5076012;28;20256;-78
2021/03/21 03:54:25;;;;;;;27.33;21.30;;;7.60;99.90;;;;;;5075871;28;20190;-78
2021/03/21 03:57:12;;;;;;;28.17;21.40;;;7.70;99.90;;;;;;5075905;28;20165;-80
2021/03/21 04:00:19;;;;;;;28.93;22.20;;;7.80;99.90;;;;;;5075992;28;20175;-79
2021/03/21 04:02:56;;;;;;;29.57;23.03;;;7.80;99.90;;;;;;5029583;28;20275;-79
2021/03/21 04:05:44;;;;;;;30.40;22.27;;;7.70;99.90;;;;;;5057275;28;20652;-80
2021/03/21 04:08:28;;;;;;;32.13;22.20;;;7.70;99.90;;;;;;5075610;28;20172;-83
2021/03/21 04:11:18;;;;;;;30.77;22.47;;;7.60;99.90;;;;;;5057690;28;20601;-81
2021/03/21 04:13:55;;;;;;;30.90;22.33;;;7.60;99.90;;;;;;5057755;28;20528;-78
2021/03/21 04:16:28;;;;;;;28.37;21.97;;;7.70;99.90;;;;;;5074956;28;20338;-78
2021/03/21 04:19:12;;;;;;;29.83;22.50;;;7.70;99.90;;;;;;5075586;28;20246;-78
2021/03/21 04:21:54;;;;;;;33.63;23.33;;;7.70;99.90;;;;;;5075311;28;20165;-79
2021/03/21 04:24:27;;;;;;;32.20;23.03;;;7.70;99.90;;;;;;5075068;28;20306;-78
2021/03/21 04:27:03;;;;;;;31.33;23.53;;;7.90;99.90;;;;;;5074444;28;20212;-86
2021/03/21 04:29:48;;;;;;;34.97;24.17;;;8.10;99.70;;;;;;5075180;28;20164;-78
2021/03/21 04:32:19;;;;;;;33.40;23.87;;;8.00;99.90;;;;;;5074968;28;20595;-77
2021/03/21 04:34:49;;;;;;;31.70;23.57;;;8.00;99.90;;;;;;5075621;28;20160;-84
2021/03/21 04:37:17;;;;;;;33.13;24.57;;;8.00;99.90;;;;;;5082477;28;20192;-84
2021/03/21 04:39:43;;;;;;;33.77;23.53;;;7.90;99.90;;;;;;5082742;28;20188;-79
2021/03/21 04:42:30;;;;;;;33.87;26.10;;;7.90;99.90;;;;;;5065443;28;20172;-84
2021/03/21 04:45:11;;;;;;;36.07;25.30;;;7.80;99.90;;;;;;5075154;28;20168;-80
2021/03/21 04:47:51;;;;;;;35.80;25.67;;;8.00;99.90;;;;;;5074867;28;20218;-82
2021/03/21 04:50:18;;;;;;;39.83;26.17;;;8.00;99.90;;;;;;5056838;28;20172;-84
2021/03/21 04:53:05;;;;;;;38.33;27.30;;;8.10;99.90;;;;;;5074916;28;20597;-84
2021/03/21 04:55:37;;;;;;;37.70;26.70;;;8.10;99.90;;;;;;5074702;28;20202;-85
2021/03/21 04:58:11;;;;;;;36.87;26.80;;;8.00;99.90;;;;;;5075457;28;20210;-84
2021/03/21 05:00:40;;;;;;;36.97;26.13;;;8.00;99.90;;;;;;5056818;28;20703;-81
2021/03/21 05:03:21;;;;;;;39.73;27.27;;;8.00;99.90;;;;;;5056300;28;20183;-80
2021/03/21 05:05:55;;;;;;;38.67;28.10;;;8.10;99.90;;;;;;5074433;28;20203;-79
2021/03/21 05:08:26;;;;;;;40.83;29.53;;;8.20;99.90;;;;;;5074346;28;20172;-78
2021/03/21 05:10:57;;;;;;;39.93;27.23;;;8.10;99.90;;;;;;5074283;28;20192;-83
2021/03/21 05:13:55;;;;;;;39.90;28.53;;;8.20;99.90;;;;;;5056080;28;20169;-79
2021/03/21 05:16:32;;;;;;;43.77;30.67;;;8.20;99.90;;;;;;5074340;28;20172;-80
2021/03/21 05:19:24;;;;;;;47.17;30.80;;;8.30;99.90;;;;;;5074081;28;20624;-80
2021/03/21 05:22:00;;;;;;;46.43;31.80;;;8.30;99.90;;;;;;5056823;28;20180;-81
2021/03/21 05:24:39;;;;;;;45.23;30.53;;;8.40;99.90;;;;;;5074554;28;20195;-81
2021/03/21 05:27:13;;;;;;;44.50;30.80;;;8.40;99.90;;;;;;5056538;28;20216;-83
2021/03/21 05:29:53;;;;;;;45.73;30.77;;;8.30;99.90;;;;;;5057048;28;20183;-84
2021/03/21 05:32:20;;;;;;;43.50;30.50;;;8.40;99.90;;;;;;5085196;28;20637;-81
2021/03/21 05:34:48;;;;;;;49.37;31.30;;;8.40;99.90;;;;;;5084864;28;20169;-78
2021/03/21 05:37:32;;;;;;;47.03;31.47;;;8.40;99.90;;;;;;5068679;28;20172;-82
2021/03/21 05:40:01;;;;;;;45.07;30.77;;;8.40;99.90;;;;;;5069737;28;20536;-76
2021/03/21 05:43:05;;;;;;;46.90;32.83;;;8.50;99.90;;;;;;5086259;28;20148;-78
2021/03/21 05:45:45;;;;;;;49.50;32.20;;;8.60;99.90;;;;;;5082134;28;20261;-84
2021/03/21 05:48:35;;;;;;;48.27;32.13;;;8.60;99.90;;;;;;5073835;28;20268;-83
2021/03/21 05:51:19;;;;;;;47.70;31.07;;;8.70;99.90;;;;;;5073649;28;20172;-79
2021/03/21 05:54:22;;;;;;;48.50;30.67;;;8.70;99.90;;;;;;5055920;28;20176;-82
2021/03/21 05:57:16;;;;;;;44.80;31.67;;;8.70;99.90;;;;;;5056328;28;20281;-82
2021/03/21 06:00:19;;;;;;;44.97;30.93;;;8.60;99.90;;;;;;5074128;28;20750;-77
2021/03/21 06:03:19;;;;;;;45.80;30.43;;;8.40;99.90;;;;;;5074234;28;20196;-82
2021/03/21 06:06:03;;;;;;;44.67;29.60;;;8.40;99.90;;;;;;5056611;28;20241;-84
2021/03/21 06:08:36;;;;;;;43.03;28.90;;;8.50;99.90;;;;;;5072449;28;20580;-82
2021/03/21 06:11:22;;;;;;;45.33;30.20;;;8.50;99.90;;;;;;5073240;28;20176;-87
2021/03/21 06:14:06;;;;;;;42.83;29.23;;;8.50;99.90;;;;;;5055719;28;20186;-84
2021/03/21 06:17:00;;;;;;;44.27;28.63;;;8.50;99.90;;;;;;5055622;28;20180;-85
2021/03/21 06:19:45;;;;;;;40.83;28.80;;;8.40;99.90;;;;;;5046110;28;20203;-81
2021/03/21 06:22:33;;;;;;;41.93;29.90;;;8.40;99.90;;;;;;5055721;28;20186;-83
2021/03/21 06:25:26;;;;;;;41.30;27.87;;;8.40;99.90;;;;;;5073269;28;20663;-86
2021/03/21 06:28:11;;;;;;;43.20;28.87;;;8.40;99.90;;;;;;5073464;28;20180;-83
2021/03/21 06:30:43;;;;;;;43.50;30.33;;;8.30;99.90;;;;;;5073423;28;20259;-85
2021/03/21 06:33:23;;;;;;;41.77;28.93;;;8.30;99.90;;;;;;5055312;28;20569;-83
2021/03/21 06:36:08;;;;;;;44.37;30.50;;;8.30;99.90;;;;;;5073497;28;20179;-86
2021/03/21 06:39:14;;;;;;;48.90;31.23;;;8.30;99.90;;;;;;5073457;28;20635;-84
2021/03/21 06:42:13;;;;;;;45.37;30.03;;;8.30;99.90;;;;;;5068595;28;20191;-85
2021/03/21 06:44:44;;;;;;;43.90;27.80;;;8.30;99.90;;;;;;5073592;28;20168;-82
2021/03/21 06:47:37;;;;;;;42.17;28.87;;;8.30;99.90;;;;;;5055179;28;20207;-82
2021/03/21 06:50:24;;;;;;;46.53;32.07;;;8.30;99.90;;;;;;5073209;28;20164;-84
2021/03/21 06:53:27;;;;;;;45.27;31.33;;;8.30;99.90;;;;;;5055448;28;20176;-88
2021/03/21 06:55:56;;;;;;;45.67;29.90;;;8.40;99.90;;;;;;5055314;28;20677;-83
2021/03/21 06:58:40;;;;;;;51.87;31.00;;;8.40;99.90;;;;;;5073137;28;20164;-78
2021/03/21 07:01:17;;;;;;;44.03;28.60;;;8.40;99.90;;;;;;5072867;28;20250;-78
2021/03/21 07:03:50;;;;;;;43.53;31.67;;;8.30;99.90;;;;;;5073638;28;20164;-87
2021/03/21 07:06:53;;;;;;;43.13;29.87;;;8.30;99.90;;;;;;5055318;28;20207;-79
2021/03/21 07:09:50;;;;;;;44.07;31.40;;;8.30;99.90;;;;;;5072764;28;20254;-86
2021/03/21 07:12:27;;;;;;;46.77;32.20;;;8.30;99.90;;;;;;5073062;28;20173;-85
2021/03/21 07:15:29;;;;;;;45.23;30.67;;;8.40;99.90;;;;;;5072937;28;20244;-85
2021/03/21 07:17:54;;;;;;;49.63;34.57;;;8.30;99.90;;;;;;5055376;28;20651;-87
2021/03/21 07:20:32;;;;;;;49.13;33.90;;;8.30;99.90;;;;;;5059113;28;20164;-86
2021/03/21 07:23:10;;;;;;;39.83;28.83;;;8.40;99.90;;;;;;5076677;28;20164;-78
2021/03/21 07:25:56;;;;;;;39.07;28.27;;;8.40;99.90;;;;;;5058876;28;20215;-85
2021/03/21 07:28:39;;;;;;;36.10;25.07;;;8.40;99.90;;;;;;5076858;28;20169;-87
2021/03/21 07:31:17;;;;;;;34.57;24.07;;;8.40;99.90;;;;;;5076415;28;20226;-88
2021/03/21 07:34:01;;;;;;;24.63;16.70;;;8.40;99.90;;;;;;5076699;28;20243;-85
2021/03/21 07:36:33;;;;;;;27.83;17.57;;;8.30;99.70;;;;;;5058618;28;20281;-79
2021/03/21 07:39:19;;;;;;;22.13;15.67;;;8.40;98.80;;;;;;5076468;28;20172;-86
2021/03/21 07:42:11;;;;;;;18.17;12.07;;;8.40;98.50;;;;;;5058129;28;20199;-86
2021/03/21 07:44:36;;;;;;;16.93;11.33;;;8.40;96.90;;;;;;5058147;28;20183;-79
2021/03/21 07:47:07;;;;;;;11.57;7.27;;;8.40;96.20;;;;;;5058163;28;20208;-87
2021/03/21 07:49:44;;;;;;;11.43;7.03;;;8.30;93.90;;;;;;5058512;28;20629;-80
2021/03/21 07:52:47;;;;;;;11.83;6.50;;;8.20;93.40;;;;;;5076508;28;20217;-84
2021/03/21 07:55:21;;;;;;;10.40;6.40;;;8.30;93.10;;;;;;5075993;28;20204;-86
2021/03/21 07:58:28;;;;;;;8.93;5.23;;;8.40;92.50;;;;;;5075915;28;20259;-85
2021/03/21 08:00:54;;;;;;;11.77;5.00;;;8.40;91.40;;;;;;5075795;28;20598;-81
2021/03/21 08:03:29;;;;;;;11.10;5.03;;;8.30;90.40;;;;;;5075870;28;20180;-85
2021/03/21 08:05:56;;;;;;;6.23;3.40;;;8.30;90.20;;;;;;5075971;28;20211;-88
2021/03/21 08:08:29;;;;;;;8.53;4.07;;;8.20;87.60;;;;;;5075799;28;20203;-80
2021/03/21 08:11:00;;;;;;;9.83;3.23;;;8.20;89.50;;;;;;5074781;28;20173;-79
2021/03/21 08:13:25;;;;;;;6.63;2.83;;;8.20;88.60;;;;;;5057718;28;20264;-85
2021/03/21 08:15:51;;;;;;;7.37;3.17;;;8.10;87.60;;;;;;5075855;28;20206;-89
2021/03/21 08:18:24;;;;;;;9.33;3.27;;;8.10;88.90;;;;;;5076723;28;20156;-84
2021/03/21 08:20:59;;;;;;;6.97;3.10;;;8.10;88.00;;;;;;5075835;28;20540;-86
2021/03/21 08:23:29;;;;;;;6.63;2.57;;;8.10;86.20;;;;;;5058507;28;20182;-85
2021/03/21 08:26:01;;;;;;;8.17;2.83;;;8.10;82.20;;;;;;5057557;28;20243;-82
2021/03/21 08:28:36;;;;;;;8.57;2.77;;;8.20;81.90;;;;;;5075230;28;20196;-88
2021/03/21 08:31:06;;;;;;;6.30;2.30;;;8.20;76.00;;;;;;5075153;28;20210;-90
2021/03/21 08:33:41;;;;;;;5.20;2.33;;;8.20;71.80;;;;;;5075344;28;20531;-81
2021/03/21 08:36:14;;;;;;;6.20;2.23;;;8.30;71.10;;;;;;5076424;28;20214;-78
2021/03/21 08:38:50;;;;;;;5.80;2.53;;;8.40;66.60;;;;;;5083183;28;20164;-85
2021/03/21 08:41:16;;;;;;;7.87;2.50;;;8.50;65.60;;;;;;5062366;28;20218;-77
2021/03/21 08:43:42;;;;;;;7.23;2.70;;;8.70;62.20;;;;;;5084011;28;20206;-78
2021/03/21 08:46:17;;;;;;;6.47;2.80;;;8.70;60.50;;;;;;5086203;28;20219;-81
2021/03/21 08:48:44;;;;;;;5.40;2.43;;;8.70;59.70;;;;;;5084518;28;20167;-85
2021/03/21 08:51:12;;;;;;;6.87;2.70;;;8.70;59.40;;;;;;5088534;28;20301;-90
2021/03/21 08:53:54;;;;;;;6.33;2.50;;;8.70;61.20;;;;;;5072277;28;20282;-82
2021/03/21 08:56:22;;;;;;;6.07;3.00;;;8.70;62.90;;;;;;5076211;28;20196;-83
2021/03/21 08:59:12;;;;;;;6.60;2.70;;;8.70;61.80;;;;;;5094435;28;20160;-90
2021/03/21 09:01:38;;;;;;;8.70;3.10;;;8.80;61.10;;;;;;5098140;28;20170;-89
2021/03/21 09:04:15;;;;;;;6.37;2.80;;;8.90;60.00;;;;;;5096138;28;20204;-82
2021/03/21 09:06:43;;;;;;;6.57;3.13;;;8.90;60.30;;;;;;5096283;28;20191;-85
2021/03/21 09:09:21;;;;;;;7.57;3.20;;;8.90;61.70;;;;;;5078575;28;20186;-87
2021/03/21 09:11:53;;;;;;;5.90;3.37;;;8.90;62.30;;;;;;5095170;28;20167;-90
2021/03/21 09:14:29;;;;;;;6.97;3.40;;;8.90;63.20;;;;;;5077197;28;20168;-81
2021/03/21 09:17:00;;;;;;;8.23;3.53;;;8.90;63.40;;;;;;5094987;28;20680;-91
2021/03/21 09:19:32;;;;;;;9.10;3.80;;;9.00;63.80;;;;;;5076973;28;20187;-87
2021/03/21 09:21:59;;;;;;;4.77;2.87;;;9.00;64.50;;;;;;5082234;28;20167;-82
2021/03/21 09:24:39;;;;;;;9.47;3.07;;;8.90;65.70;;;;;;5081489;28;20187;-89
2021/03/21 09:27:30;;;;;;;7.43;2.87;;;8.70;69.20;;;;;;5078315;28;20207;-91
2021/03/21 09:29:57;;;;;;;8.87;3.83;;;8.70;71.30;;;;;;5096315;28;20223;-88
2021/03/21 09:32:29;;;;;;;8.07;3.53;;;8.80;71.70;;;;;;5079948;28;20555;-92
2021/03/21 09:35:28;;;;;;;7.60;2.77;;;9.00;69.90;;;;;;5096769;28;20188;-90
2021/03/21 09:37:58;;;;;;;7.50;2.57;;;8.90;66.30;;;;;;5077512;28;20179;-83
2021/03/21 09:40:32;;;;;;;4.50;2.13;;;8.90;61.00;;;;;;5076928;28;20171;-89
2021/03/21 09:42:58;;;;;;;5.63;2.37;;;8.80;61.50;;;;;;5093566;28;20164;-85
2021/03/21 09:45:24;;;;;;;8.20;2.50;;;8.80;63.40;;;;;;5094851;28;20199;-88
2021/03/21 09:48:24;;;;;;;10.80;2.90;;;8.80;60.30;;;;;;5078057;28;20236;-88
2021/03/21 09:51:14;;;;;;;9.67;2.87;;;8.80;59.70;;;;;;5077512;28;20259;-82
2021/03/21 09:53:47;;;;;;;9.57;2.93;;;8.80;58.60;;;;;;5051300;28;20199;-94
2021/03/21 09:56:36;;;;;;;7.63;2.63;;;9.00;60.50;;;;;;5074343;28;20225;-93
2021/03/21 09:59:11;;;;;;;9.10;2.50;;;8.80;61.50;;;;;;5065610;28;20183;-81
2021/03/21 10:01:48;;;;;;;9.60;2.73;;;8.90;62.50;;;;;;5101446;28;20182;-90
2021/03/21 10:04:36;;;;;;;7.03;2.17;;;9.00;61.30;;;;;;5097307;28;20623;-93
2021/03/21 10:07:29;;;;;;;7.80;2.03;;;9.00;55.20;;;;;;5097620;28;20202;-82
2021/03/21 10:10:00;;;;;;;8.07;2.57;;;8.90;53.60;;;;;;5097554;28;20192;-83
2021/03/21 10:12:26;;;;;;;7.63;2.40;;;8.90;54.90;;;;;;5097486;28;20631;-79
2021/03/21 10:15:07;;;;;;;13.77;3.10;;;8.80;53.10;;;;;;5084176;28;20171;-79
2021/03/21 10:17:36;;;;;;;15.83;2.70;;;8.80;51.90;;;;;;5089203;28;20204;-82
2021/03/21 10:20:03;;;;;;;7.00;2.20;;;8.80;49.80;;;;;;5100976;28;20160;-81
2021/03/21 10:22:28;;;;;;;7.73;2.37;;;8.80;50.60;;;;;;5072622;28;20186;-88
2021/03/21 10:24:57;;;;;;;6.37;2.50;;;8.90;48.70;;;;;;5057229;28;20251;-86
2021/03/21 10:27:29;;;;;;;10.67;3.57;;;8.90;50.10;;;;;;5057631;28;20198;-87
2021/03/21 10:30:25;;;;;;;10.60;2.90;;;9.00;51.20;;;;;;5076413;28;20191;-80
2021/03/21 10:33:02;;;;;;;9.70;2.73;;;9.10;45.40;;;;;;5075761;28;20612;-85
2021/03/21 10:35:31;;;;;;;10.00;3.77;;;9.10;42.30;;;;;;5056679;28;20156;-91
2021/03/21 10:38:02;;;;;;;6.07;2.27;;;9.00;42.90;;;;;;5057723;28;20172;-83
2021/03/21 10:40:30;;;;;;;8.97;2.60;;;8.90;43.50;;;;;;5074949;28;20157;-81
2021/03/21 10:43:23;;;;;;;11.57;3.10;;;8.80;49.90;;;;;;5056597;28;20270;-86
2021/03/21 10:45:56;;;;;;;9.07;2.83;;;8.80;56.30;;;;;;5062510;28;20200;-84
2021/03/21 10:48:57;;;;;;;10.23;2.77;;;9.00;58.70;;;;;;5077283;28;20179;-81
2021/03/21 10:52:07;;;;;;;8.17;3.07;;;8.80;59.40;;;;;;5085801;28;20255;-80
2021/03/21 10:54:34;;;;;;;10.67;3.17;;;8.80;55.30;;;;;;5001227;28;20179;-80
2021/03/21 10:57:22;;;;;;;12.03;3.40;;;8.90;55.20;;;;;;5053460;28;20176;-86
2021/03/21 11:00:12;;;;;;;11.70;3.03;;;8.90;54.50;;;;;;5059671;28;20255;-82
2021/03/21 11:02:45;;;;;;;13.30;3.10;;;8.90;54.10;;;;;;5062039;28;20172;-81
2021/03/21 11:05:56;;;;;;;11.23;3.33;;;8.80;55.80;;;;;;5097573;28;20191;-83
2021/03/21 11:11:56;;;;;;;10.17;2.50;;;8.90;58.10;;;;;;5106188;28;20653;-83
2021/03/21 11:14:36;;;;;;;15.10;2.97;;;8.90;56.40;;;;;;5088428;28;20180;-80
2021/03/21 11:17:28;;;;;;;11.33;3.00;;;8.90;57.70;;;;;;5102083;28;20160;-82
2021/03/21 11:19:57;;;;;;;16.13;4.33;;;8.90;54.60;;;;;;5083711;28;20226;-79
2021/03/21 11:22:37;;;;;;;11.93;3.63;;;8.90;53.80;;;;;;5080395;28;20187;-84
2021/03/21 11:25:05;;;;;;;11.13;3.00;;;8.90;52.40;;;;;;5083821;28;20519;-80
2021/03/21 11:27:36;;;;;;;12.73;2.80;;;8.90;44.00;;;;;;5031611;28;20192;-84
2021/03/21 11:30:25;;;;;;;14.37;3.07;;;8.80;40.20;;;;;;5082073;28;20171;-80
2021/03/21 11:32:51;;;;;;;11.57;2.63;;;8.90;39.00;;;;;;5064621;28;20726;-90
2021/03/21 11:35:29;;;;;;;13.13;2.77;;;8.80;34.00;;;;;;5078874;28;20208;-80
2021/03/21 11:37:58;;;;;;;9.67;2.47;;;8.80;33.40;;;;;;5061897;28;20183;-81
2021/03/21 11:40:30;;;;;;;10.30;3.47;;;8.90;32.30;;;;;;5065951;28;20243;-80
2021/03/21 11:43:26;;;;;;;12.73;2.97;;;8.80;30.50;;;;;;5063883;28;20331;-79
2021/03/21 11:45:53;;;;;;;8.70;2.50;;;8.80;27.70;;;;;;5080286;28;20210;-83
2021/03/21 11:48:32;;;;;;;14.80;3.23;;;8.90;27.10;;;;;;5046971;28;20173;-93
2021/03/21 11:50:59;;;;;;;13.37;2.90;;;8.90;25.60;;;;;;5030148;28;20168;-90
2021/03/21 11:53:29;;;;;;;8.83;2.60;;;8.90;25.10;;;;;;5090354;28;20183;-82
2021/03/21 11:56:15;;;;;;;10.47;3.33;;;9.00;26.80;;;;;;5069973;28;20168;-80
2021/03/21 11:58:58;;;;;;;11.23;4.30;;;9.10;25.70;;;;;;5077524;28;20225;-82
2021/03/21 12:01:35;;;;;;;15.43;3.70;;;9.10;27.30;;;;;;5060323;28;20168;-85
2021/03/21 12:04:06;;;;;;;15.50;3.57;;;9.10;28.80;;;;;;5062138;28;20179;-80
2021/03/21 12:06:53;;;;;;;9.87;2.87;;;9.20;30.50;;;;;;5078530;28;20226;-81
2021/03/21 12:09:28;;;;;;;10.97;3.10;;;9.10;32.90;;;;;;5060851;28;20255;-81
2021/03/21 12:11:55;;;;;;;10.17;3.40;;;9.10;35.20;;;;;;5059651;28;20171;-85
2021/03/21 12:14:37;;;;;;;10.80;2.73;;;9.10;25.60;;;;;;5060773;28;20534;-87
2021/03/21 12:17:25;;;;;;;17.07;4.13;;;9.00;21.60;;;;;;5058644;28;20172;-91
2021/03/21 12:19:53;;;;;;;11.20;2.83;;;9.00;23.70;;;;;;5057266;28;20184;-86
2021/03/21 12:22:39;;;;;;;11.50;3.73;;;8.90;23.10;;;;;;5078555;28;20166;-90
2021/03/21 12:25:35;;;;;;;16.87;4.17;;;9.10;23.20;;;;;;5079712;28;20298;-83
2021/03/21 12:28:06;;;;;;;14.13;3.73;;;9.00;21.50;;;;;;5064377;28;20193;-85
2021/03/21 12:30:36;;;;;;;14.77;3.90;;;9.00;22.70;;;;;;5077443;28;20241;-85
2021/03/21 12:33:36;;;;;;;11.33;3.73;;;8.90;28.80;;;;;;5077852;28;20180;-82
2021/03/21 12:36:08;;;;;;;13.23;3.73;;;8.90;31.00;;;;;;5067236;28;20644;-84
2021/03/21 12:38:39;;;;;;;18.40;4.53;;;8.80;29.50;;;;;;5078854;28;20270;-88
2021/03/21 12:41:36;;;;;;;13.23;4.50;;;8.80;33.50;;;;;;5076543;28;20175;-91
2021/03/21 12:44:13;;;;;;;14.73;3.63;;;8.90;34.50;;;;;;5076187;28;20195;-89
2021/03/21 12:47:02;;;;;;;12.10;3.67;;;9.10;34.00;;;;;;5075856;28;20780;-82
2021/03/21 12:49:41;;;;;;;14.53;4.30;;;8.80;36.40;;;;;;5077239;28;20184;-83
2021/03/21 12:52:35;;;;;;;11.40;4.10;;;8.90;38.80;;;;;;5095449;28;20170;-84
2021/03/21 12:55:01;;;;;;;12.33;4.13;;;9.00;38.00;;;;;;5062119;28;20766;-90
2021/03/21 12:57:27;;;;;;;13.43;3.93;;;9.10;35.10;;;;;;5063566;28;20214;-82
2021/03/21 12:59:53;;;;;;;17.10;3.90;;;9.00;35.50;;;;;;5059650;28;20164;-86
2021/03/21 13:02:27;;;;;;;17.17;4.83;;;8.90;34.90;;;;;;5058871;28;20176;-85
2021/03/21 13:04:54;;;;;;;12.97;3.70;;;8.90;31.40;;;;;;5058435;28;20168;-86
2021/03/21 13:07:22;;;;;;;19.80;4.70;;;8.80;29.40;;;;;;5075911;28;20204;-87
2021/03/21 13:09:48;;;;;;;13.97;4.77;;;8.70;31.40;;;;;;5075448;28;20192;-85
2021/03/21 13:12:14;;;;;;;17.73;4.63;;;8.80;34.20;;;;;;5056364;28;20176;-94
2021/03/21 13:14:40;;;;;;;16.10;4.63;;;8.80;33.70;;;;;;5075589;28;20176;-84
2021/03/21 13:17:09;;;;;;;17.57;4.47;;;8.80;36.70;;;;;;5057632;28;20263;-89
2021/03/21 13:19:38;;;;;;;21.57;4.83;;;8.80;39.50;;;;;;5060672;28;20212;-85
2021/03/21 13:22:04;;;;;;;17.70;5.53;;;8.80;41.40;;;;;;5069845;28;20180;-86
2021/03/21 13:24:30;;;;;;;13.63;4.50;;;8.90;43.70;;;;;;5076201;28;20252;-87
2021/03/21 13:26:57;;;;;;;17.87;5.60;;;8.90;40.90;;;;;;5093823;28;20708;-83
2021/03/21 13:29:23;;;;;;;17.17;4.67;;;8.80;39.50;;;;;;5075393;28;20190;-88
2021/03/21 13:31:48;;;;;;;18.43;4.30;;;8.80;40.40;;;;;;5074757;28;20183;-82
2021/03/21 13:34:15;;;;;;;19.80;5.20;;;8.80;38.60;;;;;;5074670;28;20607;-87
2021/03/21 13:36:41;;;;;;;16.37;4.33;;;9.00;32.70;;;;;;5075546;28;20186;-84